createdAt,value
2022-12-08T00:01:55.494Z,2.80
2022-12-08T00:16:58.398Z,3.00
2022-12-08T00:32:00.485Z,2.80
2022-12-08T00:47:02.551Z,2.70
2022-12-08T01:02:04.534Z,2.42
2022-12-08T01:17:06.578Z,2.60
2022-12-08T01:32:09.194Z,2.67
2022-12-08T01:47:11.562Z,2.60
2022-12-08T05:59:23.646Z,2.70
2022-12-08T06:14:25.799Z,2.60
2022-12-08T06:29:28.010Z,2.50
2022-12-08T06:44:30.183Z,2.75
2022-12-08T06:59:32.362Z,3.28
2022-12-08T07:14:34.588Z,6.82
2022-12-08T07:29:36.820Z,5.15
2022-12-08T07:44:38.971Z,4.60
2022-12-08T07:59:41.170Z,8.40
2022-12-08T08:14:43.403Z,6.88
2022-12-08T08:29:45.550Z,5.00
2022-12-08T08:44:47.701Z,4.00
2022-12-08T08:59:49.854Z,4.05
2022-12-08T09:14:52.016Z,3.47
2022-12-08T09:29:54.167Z,3.03
2022-12-08T09:45:15.629Z,3.30
2022-12-08T10:00:18.340Z,3.40
2022-12-08T10:15:38.309Z,3.65
2022-12-08T10:30:40.537Z,2.80
2022-12-08T10:45:43.435Z,3.00
2022-12-08T11:00:45.669Z,3.50
2022-12-08T11:15:47.978Z,3.30
2022-12-08T11:31:22.608Z,3.40
2022-12-08T11:46:27.656Z,3.47
2022-12-08T12:01:29.878Z,3.30
2022-12-08T12:16:50.574Z,3.10
2022-12-08T12:31:56.008Z,3.33
2022-12-08T12:47:02.522Z,3.10
2022-12-08T13:02:32.028Z,2.60
2022-12-08T13:17:35.716Z,3.00
2022-12-08T13:49:32.009Z,2.67
2022-12-08T14:19:26.939Z,2.83
2022-12-08T14:34:29.171Z,3.05
2022-12-08T14:49:40.641Z,2.97
2022-12-08T15:04:44.302Z,3.25
2022-12-08T15:19:56.148Z,3.08
2022-12-08T15:34:58.347Z,3.10
2022-12-08T15:50:00.509Z,3.20
2022-12-08T16:20:44.003Z,3.15
2022-12-08T16:35:49.417Z,3.30
2022-12-08T16:50:56.097Z,3.30
2022-12-08T17:05:58.262Z,3.00
2022-12-08T17:21:00.429Z,3.78
2022-12-08T17:36:02.713Z,3.88
2022-12-08T17:51:04.918Z,3.72
2022-12-08T18:06:08.946Z,3.88
2022-12-08T18:21:11.264Z,3.88
2022-12-08T18:36:15.796Z,3.55
2022-12-08T18:51:23.100Z,4.00
2022-12-08T19:06:25.357Z,3.90
2022-12-08T19:21:28.867Z,4.15
2022-12-08T19:36:35.714Z,3.97
2022-12-08T19:51:38.039Z,3.63
2022-12-08T20:06:40.375Z,3.60
2022-12-08T20:21:45.224Z,4.05
2022-12-08T20:36:47.573Z,3.50
2022-12-08T20:51:53.249Z,3.75
2022-12-08T21:06:56.035Z,3.50
2022-12-08T21:22:04.123Z,3.30
2022-12-08T21:37:34.389Z,3.50
2022-12-08T21:53:09.115Z,3.58
2022-12-08T23:16:01.373Z,3.70
2022-12-08T23:31:08.021Z,3.30
2022-12-08T23:46:10.001Z,3.25
